Time,TemperatureF,DewpointF,PressureIn,WindDirection,WindDirectionDegrees,WindSpeedMPH,WindSpeedGustMPH,Humidity,HourlyPrecipIn,Conditions,Clouds,dailyrainin,SolarRadiationWatts/m^2,SoftwareType,DateUTC
2013-05-14 00:01:00,64.0,54.0,-100.00,North,359,9.0,15.0,71,0.00,,,0.00,0.000000,,2013-05-14 10:01:00,
2013-05-14 00:33:00,64.0,54.0,-100.00,North,359,9.0,15.0,71,0.00,,,0.00,0.000000,,2013-05-14 10:33:00,
2013-05-14 00:42:00,64.0,54.0,-100.00,North,359,9.0,15.0,71,0.00,,,0.00,0.000000,,2013-05-14 10:42:00,
2013-05-14 00:52:00,64.0,54.0,-100.00,North,359,9.0,15.0,71,0.00,,,0.00,0.000000,,2013-05-14 10:52:00,
2013-05-14 01:01:00,63.0,55.0,-100.00,North,3,8.0,17.0,76,0.00,,,0.00,0.000000,,2013-05-14 11:01:00,
2013-05-14 01:32:00,63.0,55.0,-100.00,North,3,8.0,17.0,76,0.00,,,0.00,0.000000,,2013-05-14 11:32:00,
2013-05-14 01:43:00,63.0,55.0,-100.00,North,3,8.0,17.0,76,0.00,,,0.00,0.000000,,2013-05-14 11:43:00,
2013-05-14 01:52:00,63.0,55.0,-100.00,North,3,8.0,17.0,76,0.00,,,0.00,0.000000,,2013-05-14 11:52:00,
2013-05-14 02:01:00,64.0,55.0,-100.00,NNE,12,9.0,17.0,72,0.00,,,0.00,0.000000,,2013-05-14 12:01:00,
2013-05-14 02:22:00,64.0,55.0,-100.00,NNE,12,9.0,17.0,72,0.00,,,0.00,0.000000,,2013-05-14 12:22:00,
2013-05-14 02:32:00,64.0,55.0,-100.00,NNE,12,9.0,17.0,72,0.00,,,0.00,0.000000,,2013-05-14 12:32:00,
2013-05-14 02:42:00,64.0,55.0,-100.00,NNE,12,9.0,17.0,72,0.00,,,0.00,0.000000,,2013-05-14 12:42:00,
2013-05-14 02:52:00,64.0,55.0,-100.00,NNE,12,9.0,17.0,72,0.00,,,0.00,0.000000,,2013-05-14 12:52:00,
2013-05-14 03:01:00,63.0,55.0,-100.00,NNE,21,11.0,16.0,76,0.00,,,0.00,0.000000,,2013-05-14 13:01:00,
2013-05-14 03:22:00,63.0,55.0,-100.00,NNE,21,11.0,16.0,76,0.00,,,0.00,0.000000,,2013-05-14 13:22:00,
2013-05-14 03:32:00,63.0,55.0,-100.00,NNE,21,11.0,16.0,76,0.00,,,0.00,0.000000,,2013-05-14 13:32:00,
2013-05-14 03:42:00,63.0,55.0,-100.00,NNE,21,11.0,16.0,76,0.00,,,0.00,0.000000,,2013-05-14 13:42:00,
2013-05-14 03:52:00,63.0,55.0,-100.00,NNE,21,11.0,16.0,76,0.00,,,0.00,0.000000,,2013-05-14 13:52:00,
2013-05-14 04:01:00,62.0,58.0,-100.00,NNE,16,12.0,17.0,86,0.00,,,-99.99,0.000000,,2013-05-14 14:01:00,
2013-05-14 04:22:00,62.0,58.0,-100.00,NNE,16,12.0,17.0,86,0.00,,,-99.99,0.000000,,2013-05-14 14:22:00,
2013-05-14 04:32:00,62.0,58.0,-100.00,NNE,16,12.0,17.0,86,0.00,,,-99.99,0.000000,,2013-05-14 14:32:00,
2013-05-14 04:42:00,62.0,58.0,-100.00,NNE,16,12.0,17.0,86,0.00,,,-99.99,0.000000,,2013-05-14 14:42:00,
2013-05-14 04:52:00,62.0,58.0,-100.00,NNE,16,12.0,17.0,86,0.00,,,-99.99,0.000000,,2013-05-14 14:52:00,
2013-05-14 05:01:00,63.0,55.0,-100.00,NNE,30,11.0,17.0,75,0.00,,,0.00,0.000000,,2013-05-14 15:01:00,
2013-05-14 05:33:00,63.0,55.0,-100.00,NNE,30,11.0,17.0,75,0.00,,,0.00,0.000000,,2013-05-14 15:33:00,
2013-05-14 05:43:00,63.0,55.0,-100.00,NNE,30,11.0,17.0,75,0.00,,,0.00,0.000000,,2013-05-14 15:43:00,
2013-05-14 05:53:00,63.0,55.0,-100.00,NNE,30,11.0,17.0,75,0.00,,,0.00,0.000000,,2013-05-14 15:53:00,
2013-05-14 06:01:00,61.0,54.0,-100.00,NNE,14,10.0,15.0,78,0.00,,,0.00,2.000000,,2013-05-14 16:01:00,
2013-05-14 06:33:00,61.0,54.0,-100.00,NNE,14,10.0,15.0,78,0.00,,,0.00,2.000000,,2013-05-14 16:33:00,
2013-05-14 06:44:00,61.0,54.0,-100.00,NNE,14,10.0,15.0,78,0.00,,,0.00,2.000000,,2013-05-14 16:44:00,
2013-05-14 06:54:00,61.0,54.0,-100.00,NNE,14,10.0,15.0,78,0.00,,,0.00,2.000000,,2013-05-14 16:54:00,
2013-05-14 07:01:00,65.0,55.0,-100.00,NNE,18,7.0,15.0,70,0.00,,,0.00,82.000000,,2013-05-14 17:01:00,
2013-05-14 07:24:00,65.0,55.0,-100.00,NNE,18,7.0,15.0,70,0.00,,,0.00,82.000000,,2013-05-14 17:24:00,
2013-05-14 07:33:00,65.0,55.0,-100.00,NNE,18,7.0,15.0,70,0.00,,,0.00,82.000000,,2013-05-14 17:33:00,
2013-05-14 07:43:00,65.0,55.0,-100.00,NNE,18,7.0,15.0,70,0.00,,,0.00,82.000000,,2013-05-14 17:43:00,
2013-05-14 07:52:00,65.0,55.0,-100.00,NNE,18,7.0,15.0,70,0.00,,,0.00,82.000000,,2013-05-14 17:52:00,
2013-05-14 08:01:00,69.0,57.0,-100.00,NNE,20,15.0,21.0,65,0.00,,,-99.99,320.000000,,2013-05-14 18:01:00,
2013-05-14 08:32:00,69.0,57.0,-100.00,NNE,20,15.0,21.0,65,0.00,,,-99.99,320.000000,,2013-05-14 18:32:00,
2013-05-14 08:42:00,69.0,57.0,-100.00,NNE,20,15.0,21.0,65,0.00,,,-99.99,320.000000,,2013-05-14 18:42:00,
2013-05-14 08:52:00,69.0,57.0,-100.00,NNE,20,15.0,21.0,65,0.00,,,-99.99,320.000000,,2013-05-14 18:52:00,
2013-05-14 09:01:00,72.0,56.0,-100.00,NNE,33,20.0,28.0,58,0.00,,,0.00,523.000000,,2013-05-14 19:01:00,
2013-05-14 09:32:00,72.0,56.0,-100.00,NNE,33,20.0,28.0,58,0.00,,,0.00,523.000000,,2013-05-14 19:32:00,
2013-05-14 09:42:00,72.0,56.0,-100.00,NNE,33,20.0,28.0,58,0.00,,,0.00,523.000000,,2013-05-14 19:42:00,
2013-05-14 09:52:00,72.0,56.0,-100.00,NNE,33,20.0,28.0,58,0.00,,,0.00,523.000000,,2013-05-14 19:52:00,
2013-05-14 10:01:00,75.0,57.0,-100.00,NE,36,16.0,28.0,53,0.00,,,0.00,560.000000,,2013-05-14 20:01:00,
2013-05-14 10:33:00,75.0,57.0,-100.00,NE,36,16.0,28.0,53,0.00,,,0.00,560.000000,,2013-05-14 20:33:00,
2013-05-14 10:44:00,75.0,57.0,-100.00,NE,36,16.0,28.0,53,0.00,,,0.00,560.000000,,2013-05-14 20:44:00,
2013-05-14 10:52:00,75.0,57.0,-100.00,NE,36,16.0,28.0,53,0.00,,,0.00,560.000000,,2013-05-14 20:52:00,
2013-05-14 11:01:00,77.0,57.0,-100.00,NE,54,15.0,25.0,51,0.00,,,0.00,910.000000,,2013-05-14 21:01:00,
2013-05-14 11:34:00,77.0,57.0,-100.00,NE,54,15.0,25.0,51,0.00,,,0.00,910.000000,,2013-05-14 21:34:00,
2013-05-14 11:43:00,77.0,57.0,-100.00,NE,54,15.0,25.0,51,0.00,,,0.00,910.000000,,2013-05-14 21:43:00,
2013-05-14 11:53:00,77.0,57.0,-100.00,NE,54,15.0,25.0,51,0.00,,,0.00,910.000000,,2013-05-14 21:53:00,
2013-05-14 12:01:00,76.0,59.0,-100.00,NE,52,17.0,24.0,55,0.00,,,0.00,963.000000,,2013-05-14 22:01:00,
2013-05-14 12:34:00,76.0,59.0,-100.00,NE,52,17.0,24.0,55,0.00,,,0.00,963.000000,,2013-05-14 22:34:00,
2013-05-14 12:45:00,76.0,59.0,-100.00,NE,52,17.0,24.0,55,0.00,,,0.00,963.000000,,2013-05-14 22:45:00,
2013-05-14 12:54:00,76.0,59.0,-100.00,NE,52,17.0,24.0,55,0.00,,,0.00,963.000000,,2013-05-14 22:54:00,
2013-05-14 13:01:00,77.0,60.0,-100.00,NE,39,17.0,28.0,56,0.00,,,0.00,1013.000000,,2013-05-14 23:01:00,
2013-05-14 13:32:00,77.0,60.0,-100.00,NE,39,17.0,28.0,56,0.00,,,0.00,1013.000000,,2013-05-14 23:32:00,
2013-05-14 13:44:00,77.0,60.0,-100.00,NE,39,17.0,28.0,56,0.00,,,0.00,1013.000000,,2013-05-14 23:44:00,
2013-05-14 13:52:00,77.0,60.0,-100.00,NE,39,17.0,28.0,56,0.00,,,0.00,1013.000000,,2013-05-14 23:52:00,
2013-05-14 14:01:00,75.0,61.0,-100.00,NNE,33,21.0,32.0,62,0.00,,,0.00,974.000000,,2013-05-15 00:01:00,
2013-05-14 14:32:00,75.0,61.0,-100.00,NNE,33,21.0,32.0,62,0.00,,,0.00,974.000000,,2013-05-15 00:32:00,
2013-05-14 14:42:00,75.0,61.0,-100.00,NNE,33,21.0,32.0,62,0.00,,,0.00,974.000000,,2013-05-15 00:42:00,
2013-05-14 14:52:00,75.0,61.0,-100.00,NNE,33,21.0,32.0,62,0.00,,,0.00,974.000000,,2013-05-15 00:52:00,
2013-05-14 15:01:00,76.0,58.0,-100.00,NE,43,15.0,31.0,54,0.00,,,0.00,875.000000,,2013-05-15 01:01:00,
2013-05-14 15:22:00,76.0,58.0,-100.00,NE,43,15.0,31.0,54,0.00,,,0.00,875.000000,,2013-05-15 01:22:00,
2013-05-14 15:32:00,76.0,58.0,-100.00,NE,43,15.0,31.0,54,0.00,,,0.00,875.000000,,2013-05-15 01:32:00,
2013-05-14 15:42:00,76.0,58.0,-100.00,NE,43,15.0,31.0,54,0.00,,,0.00,875.000000,,2013-05-15 01:42:00,
2013-05-14 15:52:00,76.0,58.0,-100.00,NE,43,15.0,31.0,54,0.00,,,0.00,875.000000,,2013-05-15 01:52:00,
2013-05-14 16:01:00,75.0,58.0,-100.00,NE,34,18.0,25.0,56,0.00,,,0.00,702.000000,,2013-05-15 02:01:00,
2013-05-14 16:22:00,75.0,58.0,-100.00,NE,34,18.0,25.0,56,0.00,,,0.00,702.000000,,2013-05-15 02:22:00,
2013-05-14 16:32:00,75.0,58.0,-100.00,NE,34,18.0,25.0,56,0.00,,,0.00,702.000000,,2013-05-15 02:32:00,
2013-05-14 16:42:00,75.0,58.0,-100.00,NE,34,18.0,25.0,56,0.00,,,0.00,702.000000,,2013-05-15 02:42:00,
2013-05-14 16:52:00,75.0,58.0,-100.00,NE,34,18.0,25.0,56,0.00,,,0.00,702.000000,,2013-05-15 02:52:00,
2013-05-14 17:01:00,72.0,59.0,-100.00,NNE,20,20.0,30.0,64,0.00,,,0.00,488.000000,,2013-05-15 03:01:00,
2013-05-14 17:33:00,72.0,59.0,-100.00,NNE,20,20.0,30.0,64,0.00,,,0.00,488.000000,,2013-05-15 03:33:00,
2013-05-14 17:44:00,72.0,59.0,-100.00,NNE,20,20.0,30.0,64,0.00,,,0.00,488.000000,,2013-05-15 03:44:00,
2013-05-14 17:54:00,72.0,59.0,-100.00,NNE,20,20.0,30.0,64,0.00,,,0.00,488.000000,,2013-05-15 03:54:00,
2013-05-14 18:01:00,69.0,59.0,-100.00,NNE,25,19.0,31.0,70,0.00,,,0.00,256.000000,,2013-05-15 04:01:00,
2013-05-14 18:33:00,69.0,59.0,-100.00,NNE,25,19.0,31.0,70,0.00,,,0.00,256.000000,,2013-05-15 04:33:00,
2013-05-14 18:43:00,69.0,59.0,-100.00,NNE,25,19.0,31.0,70,0.00,,,0.00,256.000000,,2013-05-15 04:43:00,
2013-05-14 18:52:00,69.0,59.0,-100.00,NNE,25,19.0,31.0,70,0.00,,,0.00,256.000000,,2013-05-15 04:52:00,
2013-05-14 19:01:00,65.0,59.0,-100.00,NNE,20,17.0,26.0,80,0.00,,,0.00,35.000000,,2013-05-15 05:01:00,
2013-05-14 19:32:00,65.0,59.0,-100.00,NNE,20,17.0,26.0,80,0.00,,,0.00,35.000000,,2013-05-15 05:32:00,
2013-05-14 19:42:00,65.0,59.0,-100.00,NNE,20,17.0,26.0,80,0.00,,,0.00,35.000000,,2013-05-15 05:42:00,
2013-05-14 19:52:00,65.0,59.0,-100.00,NNE,20,17.0,26.0,80,0.00,,,0.00,35.000000,,2013-05-15 05:52:00,
2013-05-14 20:01:00,64.0,58.0,-100.00,NNE,14,17.0,27.0,81,0.00,,,0.00,0.000000,,2013-05-15 06:01:00,
2013-05-14 20:22:00,64.0,58.0,-100.00,NNE,14,17.0,27.0,81,0.00,,,0.00,0.000000,,2013-05-15 06:22:00,
2013-05-14 20:32:00,64.0,58.0,-100.00,NNE,14,17.0,27.0,81,0.00,,,0.00,0.000000,,2013-05-15 06:32:00,
2013-05-14 20:42:00,64.0,58.0,-100.00,NNE,14,17.0,27.0,81,0.00,,,0.00,0.000000,,2013-05-15 06:42:00,
2013-05-14 20:52:00,64.0,58.0,-100.00,NNE,14,17.0,27.0,81,0.00,,,0.00,0.000000,,2013-05-15 06:52:00,
2013-05-14 21:01:00,64.0,59.0,-100.00,NNE,13,15.0,31.0,83,0.00,,,0.00,0.000000,,2013-05-15 07:01:00,
2013-05-14 21:22:00,64.0,59.0,-100.00,NNE,13,15.0,31.0,83,0.00,,,0.00,0.000000,,2013-05-15 07:22:00,
2013-05-14 21:32:00,64.0,59.0,-100.00,NNE,13,15.0,31.0,83,0.00,,,0.00,0.000000,,2013-05-15 07:32:00,
2013-05-14 21:42:00,64.0,59.0,-100.00,NNE,13,15.0,31.0,83,0.00,,,0.00,0.000000,,2013-05-15 07:42:00,
2013-05-14 21:52:00,64.0,59.0,-100.00,NNE,13,15.0,31.0,83,0.00,,,0.00,0.000000,,2013-05-15 07:52:00,
2013-05-14 22:01:00,64.0,59.0,-100.00,North,9,14.0,23.0,83,0.00,,,0.00,0.000000,,2013-05-15 08:01:00,
2013-05-14 22:21:00,64.0,59.0,-100.00,North,9,14.0,23.0,83,0.00,,,0.00,0.000000,,2013-05-15 08:21:00,
2013-05-14 22:32:00,64.0,59.0,-100.00,North,9,14.0,23.0,83,0.00,,,0.00,0.000000,,2013-05-15 08:32:00,
2013-05-14 22:42:00,64.0,59.0,-100.00,North,9,14.0,23.0,83,0.00,,,0.00,0.000000,,2013-05-15 08:42:00,
2013-05-14 22:53:00,64.0,59.0,-100.00,North,9,14.0,23.0,83,0.00,,,0.00,0.000000,,2013-05-15 08:53:00,
2013-05-14 23:01:00,63.0,58.0,-100.00,NNE,18,16.0,26.0,85,0.00,,,0.00,0.000000,,2013-05-15 09:01:00,
2013-05-14 23:22:00,63.0,58.0,-100.00,NNE,18,16.0,26.0,85,0.00,,,0.00,0.000000,,2013-05-15 09:22:00,
2013-05-14 23:33:00,63.0,58.0,-100.00,NNE,18,16.0,26.0,85,0.00,,,0.00,0.000000,,2013-05-15 09:33:00,
2013-05-14 23:42:00,63.0,58.0,-100.00,NNE,18,16.0,26.0,85,0.00,,,0.00,0.000000,,2013-05-15 09:42:00,
2013-05-14 23:53:00,63.0,58.0,-100.00,NNE,18,16.0,26.0,85,0.00,,,0.00,0.000000,,2013-05-15 09:53:00,